createdAt,value
2023-04-05T00:00:54.307Z,9.32
2023-04-05T00:03:22.187Z,22.25
2023-04-05T00:05:50.542Z,19.98
2023-04-05T00:08:26.560Z,28.50
2023-04-05T00:10:54.600Z,26.05
2023-04-05T00:13:22.696Z,23.85
2023-04-05T00:15:50.957Z,25.20
2023-04-05T00:18:23.818Z,17.90
2023-04-05T00:20:52.249Z,14.70
2023-04-05T00:23:21.273Z,16.38
2023-04-05T00:25:49.289Z,11.88
2023-04-05T00:28:16.818Z,15.27
2023-04-05T00:30:44.395Z,13.40
2023-04-05T00:33:13.124Z,14.77
2023-04-05T00:35:42.030Z,12.10
2023-04-05T00:38:09.680Z,9.30
2023-04-05T00:40:37.360Z,9.90
2023-04-05T00:43:04.978Z,11.30
2023-04-05T00:45:32.873Z,12.57
2023-04-05T00:48:01.360Z,8.68
2023-04-05T00:50:30.881Z,9.63
2023-04-05T00:52:59.968Z,9.05
2023-04-05T00:55:29.198Z,10.48
2023-04-05T00:57:56.894Z,8.80
2023-04-05T01:00:24.547Z,9.57
2023-04-05T01:02:57.787Z,8.50
2023-04-05T01:05:36.016Z,11.65
2023-04-05T01:08:14.160Z,11.48
2023-04-05T01:10:47.623Z,15.65
2023-04-05T01:13:17.363Z,10.63
2023-04-05T01:15:44.918Z,8.90
2023-04-05T01:18:12.634Z,10.95
2023-04-05T01:20:46.944Z,10.77
2023-04-05T01:23:44.431Z,13.00
2023-04-05T01:26:45.458Z,9.90
2023-04-05T01:29:44.163Z,11.68
2023-04-05T01:32:19.282Z,10.10
2023-04-05T01:34:52.912Z,10.95
2023-04-05T01:37:23.736Z,9.25
2023-04-05T01:39:52.066Z,10.35
2023-04-05T01:42:25.568Z,10.93
2023-04-05T01:44:55.466Z,9.18
2023-04-05T01:47:23.172Z,8.57
2023-04-05T01:49:50.908Z,9.45
2023-04-05T01:52:18.444Z,8.18
2023-04-05T01:54:46.108Z,7.30
2023-04-05T01:57:13.647Z,8.07
2023-04-05T01:59:41.199Z,10.05
2023-04-05T02:02:10.098Z,7.50
2023-04-05T02:04:37.804Z,8.23
2023-04-05T02:07:05.380Z,7.38
2023-04-05T02:09:32.910Z,6.15
2023-04-05T02:12:01.350Z,9.35
2023-04-05T02:14:28.913Z,7.88
2023-04-05T02:16:56.680Z,8.55
2023-04-05T02:19:26.049Z,6.60
2023-04-05T02:21:54.693Z,7.32
2023-04-05T02:24:22.759Z,7.60
2023-04-05T02:26:51.202Z,9.65
2023-04-05T02:29:18.763Z,8.38
2023-04-05T02:31:46.344Z,11.35
2023-04-05T02:34:14.412Z,7.38
2023-04-05T02:36:44.162Z,6.97
2023-04-05T02:39:11.929Z,9.35
2023-04-05T02:41:39.562Z,9.50
2023-04-05T02:44:07.110Z,9.45
2023-04-05T02:46:34.678Z,10.05
2023-04-05T02:49:02.274Z,10.18
2023-04-05T02:51:29.842Z,8.85
2023-04-05T02:53:58.796Z,9.68
2023-04-05T02:56:26.332Z,7.30
2023-04-05T02:58:54.012Z,7.85
2023-04-05T03:01:22.635Z,8.27
2023-04-05T03:03:50.955Z,10.57
2023-04-05T03:06:20.695Z,13.48
2023-04-05T03:08:49.359Z,13.70
2023-04-05T03:11:18.390Z,12.13
2023-04-05T03:13:46.067Z,9.60
2023-04-05T03:16:13.635Z,12.70
2023-04-05T03:18:41.190Z,9.93
2023-04-05T03:21:12.616Z,8.20
2023-04-05T03:23:40.277Z,13.55
2023-04-05T03:26:07.849Z,9.05
2023-04-05T03:28:36.733Z,11.35
2023-04-05T03:31:04.305Z,8.82
2023-04-05T03:33:31.850Z,7.40
2023-04-05T03:36:00.592Z,10.63
2023-04-05T03:38:28.542Z,10.35
2023-04-05T03:40:56.085Z,7.47
2023-04-05T03:43:23.605Z,8.23
2023-04-05T03:45:52.675Z,8.43
2023-04-05T03:48:21.667Z,10.23
2023-04-05T03:50:49.199Z,11.75
2023-04-05T03:53:19.155Z,7.13
2023-04-05T03:55:49.557Z,9.55
2023-04-05T03:58:17.354Z,10.50
2023-04-05T04:00:44.901Z,12.82
2023-04-05T04:03:14.028Z,15.40
2023-04-05T04:05:42.041Z,14.27
2023-04-05T04:08:10.279Z,13.82
2023-04-05T04:10:37.951Z,9.30
2023-04-05T04:13:05.501Z,13.00
2023-04-05T04:15:33.061Z,11.05
2023-04-05T04:18:00.662Z,11.45
2023-04-05T04:20:29.763Z,11.25
2023-04-05T04:22:58.638Z,9.77
2023-04-05T04:25:26.514Z,8.48
2023-04-05T04:27:54.227Z,8.65
2023-04-05T04:30:22.774Z,10.55
2023-04-05T04:32:54.768Z,10.75
2023-04-05T04:35:24.845Z,13.30
2023-04-05T04:37:57.885Z,11.48
2023-04-05T04:40:26.777Z,11.02
2023-04-05T04:42:54.678Z,11.48
2023-04-05T04:45:22.267Z,11.65
2023-04-05T04:47:53.634Z,11.60
2023-04-05T04:50:22.082Z,13.20
2023-04-05T04:52:49.794Z,9.75
2023-04-05T04:55:18.726Z,13.63
2023-04-05T04:57:46.257Z,13.13
2023-04-05T05:00:16.569Z,11.25
2023-04-05T05:02:44.970Z,14.32
2023-04-05T05:05:12.625Z,14.95
2023-04-05T05:07:42.116Z,15.43
2023-04-05T05:10:11.357Z,12.20
2023-04-05T05:12:40.220Z,11.38
2023-04-05T05:15:09.037Z,11.63
2023-04-05T05:17:37.512Z,13.57
2023-04-05T05:20:10.610Z,16.10
2023-04-05T05:22:38.822Z,12.63
2023-04-05T05:25:08.702Z,18.20
2023-04-05T05:27:36.299Z,11.93
2023-04-05T05:30:06.190Z,15.70
2023-04-05T05:32:33.756Z,17.00
2023-04-05T05:35:01.357Z,17.17
2023-04-05T05:37:31.206Z,20.40
2023-04-05T05:39:58.910Z,13.00
2023-04-05T05:42:27.231Z,17.00
2023-04-05T05:44:54.825Z,15.23
2023-04-05T05:47:23.692Z,12.02
2023-04-05T05:49:51.163Z,11.35
2023-04-05T05:52:18.634Z,14.00
2023-04-05T05:54:47.159Z,32.47
2023-04-05T05:57:14.664Z,15.40
2023-04-05T05:59:42.256Z,16.45
2023-04-05T06:02:09.826Z,16.35
2023-04-05T06:04:38.892Z,15.35
2023-04-05T06:07:06.549Z,21.25
2023-04-05T06:09:35.238Z,15.10
2023-04-05T06:12:03.108Z,15.65
2023-04-05T06:14:31.175Z,14.52
2023-04-05T06:16:58.835Z,13.25
2023-04-05T06:19:26.371Z,16.20
2023-04-05T06:21:55.995Z,14.07
2023-04-05T06:24:23.579Z,13.95
2023-04-05T06:26:52.409Z,16.48
2023-04-05T06:29:19.943Z,14.75
2023-04-05T06:31:48.372Z,13.63
2023-04-05T06:34:16.101Z,13.15
2023-04-05T06:36:43.731Z,13.10
2023-04-05T06:39:12.590Z,14.80
2023-04-05T06:41:40.083Z,14.50
2023-04-05T06:44:07.607Z,15.32
2023-04-05T06:46:35.162Z,13.05
2023-04-05T06:49:04.134Z,11.68
2023-04-05T06:51:32.105Z,14.52
2023-04-05T06:53:59.654Z,13.18
2023-04-05T06:56:28.594Z,19.52
2023-04-05T06:58:58.071Z,17.10
2023-04-05T07:01:26.315Z,15.30
2023-04-05T07:03:54.558Z,14.98
2023-04-05T07:06:24.033Z,17.92
2023-04-05T07:08:52.573Z,14.43
2023-04-05T07:11:21.449Z,17.00
2023-04-05T07:13:50.333Z,14.20
2023-04-05T07:16:23.032Z,15.07
2023-04-05T07:18:51.130Z,13.80
2023-04-05T07:21:18.812Z,17.70
2023-04-05T07:23:46.419Z,13.85
2023-04-05T07:26:13.910Z,11.52
2023-04-05T07:28:41.425Z,10.73
2023-04-05T07:31:10.264Z,9.77
2023-04-05T07:33:37.795Z,13.27
2023-04-05T07:36:05.873Z,11.75
2023-04-05T07:38:33.384Z,11.82
2023-04-05T07:41:01.050Z,11.20
2023-04-05T07:43:28.623Z,10.63
2023-04-05T07:46:02.584Z,10.70
2023-04-05T07:48:32.075Z,10.40
2023-04-05T07:51:04.630Z,7.63
2023-04-05T07:53:32.241Z,7.70
2023-04-05T07:56:00.153Z,7.40
2023-04-05T07:58:30.439Z,9.13
2023-04-05T08:01:00.594Z,5.85
2023-04-05T08:03:28.310Z,5.13
2023-04-05T08:05:57.694Z,6.03
2023-04-05T08:08:26.036Z,6.40
2023-04-05T08:10:53.578Z,6.07
2023-04-05T08:13:21.083Z,5.80
2023-04-05T08:15:48.581Z,8.43
2023-04-05T08:18:16.083Z,7.20
2023-04-05T08:20:43.765Z,6.30
2023-04-05T08:23:12.805Z,7.20
2023-04-05T08:25:42.548Z,5.97
2023-04-05T08:28:10.296Z,5.35
2023-04-05T08:30:39.104Z,6.63
2023-04-05T08:33:07.288Z,7.28
2023-04-05T08:35:37.515Z,5.43
2023-04-05T08:38:05.055Z,5.20
2023-04-05T08:40:41.401Z,5.50
2023-04-05T08:43:13.971Z,3.70
2023-04-05T08:45:48.904Z,6.25
2023-04-05T08:48:17.137Z,5.07
2023-04-05T08:50:51.630Z,4.97
2023-04-05T08:53:19.381Z,6.75
2023-04-05T08:55:51.103Z,6.15
2023-04-05T08:58:21.951Z,6.28
2023-04-05T09:00:51.505Z,4.35
2023-04-05T09:03:23.635Z,4.45
2023-04-05T09:05:53.351Z,5.55
2023-04-05T09:08:22.179Z,5.10
2023-04-05T09:10:52.449Z,5.05
2023-04-05T09:13:20.622Z,5.90
2023-04-05T09:15:48.399Z,6.57
2023-04-05T09:18:26.362Z,5.60
2023-04-05T09:20:57.962Z,6.28
2023-04-05T09:23:25.715Z,6.20
2023-04-05T09:25:54.554Z,5.22
2023-04-05T09:28:22.068Z,4.10
2023-04-05T09:30:49.837Z,4.90
2023-04-05T09:33:21.161Z,4.78
2023-04-05T09:35:51.533Z,9.05
2023-04-05T09:38:19.149Z,7.20
2023-04-05T09:40:47.973Z,5.93
2023-04-05T09:43:38.638Z,5.20
2023-04-05T09:46:06.590Z,5.22
2023-04-05T09:48:47.725Z,6.15
2023-04-05T09:51:16.065Z,6.30
2023-04-05T09:53:58.191Z,6.43
2023-04-05T09:56:26.001Z,4.93
2023-04-05T09:58:59.549Z,5.90
2023-04-05T10:01:28.751Z,4.40
2023-04-05T10:03:58.549Z,8.65
2023-04-05T10:06:36.145Z,5.28
2023-04-05T10:09:04.926Z,4.50
2023-04-05T10:11:33.985Z,6.15
2023-04-05T10:14:04.823Z,7.57
2023-04-05T10:16:35.452Z,4.20
2023-04-05T10:19:06.378Z,4.90
2023-04-05T10:21:41.510Z,3.97
2023-04-05T10:24:19.221Z,4.63
2023-04-05T10:26:53.024Z,9.65
2023-04-05T10:29:31.121Z,5.50
2023-04-05T10:32:04.923Z,5.03
2023-04-05T10:34:41.301Z,4.07
2023-04-05T10:37:13.696Z,4.38
2023-04-05T10:39:43.609Z,8.10
2023-04-05T10:42:16.873Z,5.97
2023-04-05T10:44:47.373Z,3.58
2023-04-05T10:47:17.216Z,4.20
2023-04-05T10:49:48.405Z,5.10
2023-04-05T10:52:17.349Z,5.28
2023-04-05T10:54:45.611Z,4.95
2023-04-05T10:57:14.156Z,5.07
2023-04-05T10:59:43.790Z,5.60
2023-04-05T11:02:13.356Z,4.93
2023-04-05T11:04:42.360Z,5.63
2023-04-05T11:07:15.307Z,5.00
2023-04-05T11:09:54.307Z,8.02
2023-04-05T11:12:41.964Z,4.93
2023-04-05T11:15:32.325Z,8.35
2023-04-05T11:18:09.408Z,5.55
2023-04-05T11:20:44.733Z,5.72
2023-04-05T11:23:13.922Z,4.70
2023-04-05T11:25:46.582Z,4.07
2023-04-05T11:28:24.671Z,5.28
2023-04-05T11:30:56.538Z,7.35
2023-04-05T11:33:57.684Z,4.25
2023-04-05T11:36:33.572Z,4.25
2023-04-05T11:39:26.605Z,4.15
2023-04-05T11:44:40.214Z,4.97
2023-04-05T11:47:08.442Z,6.60
2023-04-05T11:49:38.180Z,5.20
2023-04-05T11:52:17.074Z,4.32
2023-04-05T11:54:49.239Z,4.28
2023-04-05T11:57:20.920Z,4.45
2023-04-05T11:59:51.543Z,8.95
2023-04-05T12:02:19.260Z,4.38
2023-04-05T12:04:55.076Z,5.13
2023-04-05T12:07:22.724Z,7.15
2023-04-05T12:10:00.863Z,7.95
2023-04-05T12:12:28.511Z,5.32
2023-04-05T12:15:02.663Z,4.78
2023-04-05T12:17:44.447Z,5.93
2023-04-05T12:20:15.100Z,6.85
2023-04-05T12:22:44.313Z,6.28
2023-04-05T12:25:12.801Z,8.23
2023-04-05T12:27:40.846Z,5.30
2023-04-05T12:30:15.595Z,4.85
2023-04-05T12:32:48.286Z,7.60
2023-04-05T12:37:48.689Z,5.10
2023-04-05T12:40:22.736Z,5.40
2023-04-05T12:42:50.379Z,7.72
2023-04-05T12:45:18.735Z,7.07
2023-04-05T12:47:50.704Z,5.22
2023-04-05T12:50:25.951Z,6.05
2023-04-05T12:52:58.698Z,6.22
2023-04-05T12:57:54.564Z,5.20
2023-04-05T13:00:26.053Z,4.88
2023-04-05T13:02:55.282Z,4.95
2023-04-05T13:05:26.317Z,5.40
2023-04-05T13:07:53.903Z,5.32
2023-04-05T13:10:23.008Z,6.90
2023-04-05T13:12:50.701Z,7.50
2023-04-05T13:15:19.186Z,4.60
2023-04-05T13:17:49.845Z,5.75
2023-04-05T13:20:18.528Z,5.50
2023-04-05T13:22:48.294Z,7.28
2023-04-05T13:25:16.092Z,7.00
2023-04-05T13:27:43.685Z,5.47
2023-04-05T13:30:12.086Z,4.20
2023-04-05T13:32:39.660Z,6.75
2023-04-05T13:35:07.905Z,5.57
2023-04-05T13:37:35.525Z,4.45
2023-04-05T13:40:04.924Z,4.85
2023-04-05T13:42:32.428Z,4.82
2023-04-05T13:44:59.915Z,4.68
2023-04-05T13:47:27.482Z,5.32
2023-04-05T13:49:54.979Z,6.25
2023-04-05T13:52:22.634Z,6.10
2023-04-05T13:55:03.030Z,5.13
2023-04-05T13:57:32.974Z,4.80
2023-04-05T14:00:00.769Z,4.35
2023-04-05T14:02:28.759Z,5.70
2023-04-05T14:04:56.519Z,6.97
2023-04-05T14:07:25.311Z,8.13
2023-04-05T14:09:52.797Z,5.32
2023-04-05T14:12:20.309Z,6.10
2023-04-05T14:14:49.197Z,6.28
2023-04-05T14:17:16.677Z,6.45
2023-04-05T14:19:44.191Z,5.93
2023-04-05T14:22:11.708Z,6.57
2023-04-05T14:24:39.194Z,5.80
2023-04-05T14:27:06.698Z,6.38
2023-04-05T14:29:34.238Z,6.97
2023-04-05T14:32:03.415Z,5.05
2023-04-05T14:34:31.575Z,5.65
2023-04-05T14:37:00.846Z,4.95
2023-04-05T14:39:28.331Z,5.03
2023-04-05T14:41:56.175Z,6.35
2023-04-05T14:44:24.358Z,5.80
2023-04-05T14:46:52.152Z,5.32
2023-04-05T14:49:21.486Z,5.50
2023-04-05T14:51:49.030Z,6.28
2023-04-05T14:54:16.900Z,6.07
2023-04-05T14:56:44.411Z,5.53
2023-04-05T14:59:11.980Z,6.13
2023-04-05T15:01:41.641Z,5.93
2023-04-05T15:04:09.503Z,6.13
2023-04-05T15:06:38.571Z,6.55
2023-04-05T15:09:06.226Z,5.43
2023-04-05T15:11:35.686Z,7.32
2023-04-05T15:14:03.302Z,9.00
2023-04-05T15:16:30.935Z,6.53
2023-04-05T15:18:59.040Z,8.70
2023-04-05T15:21:26.663Z,5.45
2023-04-05T15:23:55.533Z,5.80
2023-04-05T15:26:23.018Z,5.78
2023-04-05T15:28:50.508Z,7.18
2023-04-05T15:31:18.142Z,5.28
2023-04-05T15:33:46.190Z,7.00
2023-04-05T15:36:13.772Z,5.45
2023-04-05T15:38:41.490Z,7.60
2023-04-05T15:41:10.453Z,4.53
2023-04-05T15:43:38.982Z,5.15
2023-04-05T15:46:06.819Z,6.63
2023-04-05T15:48:34.364Z,6.25
2023-04-05T15:51:01.868Z,7.75
2023-04-05T15:53:29.642Z,5.95
2023-04-05T15:55:58.191Z,4.25
2023-04-05T15:58:27.137Z,6.50
2023-04-05T16:00:54.634Z,8.73
2023-04-05T16:03:22.265Z,8.38
2023-04-05T16:05:49.869Z,4.63
2023-04-05T16:08:17.349Z,6.57
2023-04-05T16:10:44.883Z,6.28
2023-04-05T16:13:12.550Z,5.57
2023-04-05T16:15:41.452Z,7.10
2023-04-05T16:18:10.450Z,7.15
2023-04-05T16:20:38.319Z,6.85
2023-04-05T16:23:06.817Z,6.75
2023-04-05T16:25:34.558Z,7.35
2023-04-05T16:28:02.137Z,4.80
2023-04-05T16:30:29.659Z,7.07
2023-04-05T16:32:58.716Z,5.05
2023-04-05T16:35:26.339Z,6.43
2023-04-05T16:37:53.843Z,5.32
2023-04-05T16:40:21.628Z,7.10
2023-04-05T16:42:49.109Z,7.90
2023-04-05T16:45:16.610Z,6.70
2023-04-05T16:47:44.481Z,5.50
2023-04-05T16:50:13.349Z,8.52
2023-04-05T16:52:40.830Z,5.43
2023-04-05T16:55:09.718Z,11.10
2023-04-05T16:57:37.252Z,6.53
2023-04-05T17:00:06.445Z,5.75
2023-04-05T17:02:34.061Z,6.50
2023-04-05T17:05:01.656Z,6.78
2023-04-05T17:07:30.678Z,6.10
2023-04-05T17:09:59.768Z,8.68
2023-04-05T17:12:27.344Z,6.15
2023-04-05T17:14:54.834Z,5.13
2023-04-05T17:17:22.357Z,5.88
2023-04-05T17:19:49.869Z,4.95
2023-04-05T17:22:17.407Z,6.68
2023-04-05T17:24:46.667Z,8.80
2023-04-05T17:27:14.171Z,7.05
2023-04-05T17:29:41.704Z,6.30
2023-04-05T17:32:09.212Z,9.90
2023-04-05T17:34:36.855Z,9.52
2023-04-05T17:37:04.401Z,9.32
2023-04-05T17:39:31.897Z,7.50
2023-04-05T17:42:00.692Z,8.93
2023-04-05T17:44:30.111Z,6.22
2023-04-05T17:47:08.550Z,8.27
2023-04-05T17:49:37.629Z,6.55
2023-04-05T17:52:06.112Z,7.03
2023-04-05T17:54:36.993Z,7.00
2023-04-05T17:57:06.421Z,9.10
2023-04-05T17:59:33.920Z,7.90
2023-04-05T18:02:01.550Z,7.68
2023-04-05T18:04:29.217Z,10.95
2023-04-05T18:06:56.873Z,26.75
2023-04-05T18:09:24.396Z,16.33
2023-04-05T18:11:51.895Z,15.45
2023-04-05T18:14:20.736Z,11.02
2023-04-05T18:16:48.351Z,9.57
2023-04-05T18:19:17.405Z,10.27
2023-04-05T18:21:45.252Z,10.95
2023-04-05T18:24:13.016Z,7.70
2023-04-05T18:26:41.359Z,7.07
2023-04-05T18:29:08.863Z,6.28
2023-04-05T18:31:37.869Z,8.55
2023-04-05T18:34:06.047Z,7.15
2023-04-05T18:36:33.673Z,7.65
2023-04-05T18:39:03.322Z,9.35
2023-04-05T18:41:30.836Z,6.72
2023-04-05T18:43:59.258Z,7.38
2023-04-05T18:46:27.307Z,6.32
2023-04-05T18:48:56.271Z,7.85
2023-04-05T18:51:25.974Z,5.88
2023-04-05T18:53:53.862Z,6.72
2023-04-05T18:56:21.422Z,6.53
2023-04-05T18:58:49.797Z,10.20
2023-04-05T19:01:18.847Z,12.30
2023-04-05T19:03:47.281Z,5.88
2023-04-05T19:06:16.591Z,6.70
2023-04-05T19:08:44.428Z,8.45
2023-04-05T19:11:13.915Z,6.72
2023-04-05T19:13:41.963Z,7.18
2023-04-05T19:16:09.493Z,12.52
2023-04-05T19:18:37.133Z,8.63
2023-04-05T19:21:05.089Z,11.27
2023-04-05T19:23:33.949Z,10.05
2023-04-05T19:26:01.513Z,12.77
2023-04-05T19:28:29.053Z,9.63
2023-04-05T19:30:57.497Z,12.70
2023-04-05T19:33:25.059Z,11.18
2023-04-05T19:35:52.766Z,8.30
2023-04-05T19:38:21.818Z,8.68
2023-04-05T19:40:50.923Z,10.05
2023-04-05T19:43:18.490Z,8.70
2023-04-05T19:45:46.166Z,9.20
2023-04-05T19:48:36.312Z,10.38
2023-04-05T19:51:05.487Z,8.05
2023-04-05T19:53:42.973Z,9.02
2023-04-05T19:56:17.120Z,14.20
2023-04-05T19:58:45.246Z,11.63
2023-04-05T20:01:20.760Z,10.00
2023-04-05T20:06:28.806Z,8.70
2023-04-05T20:32:31.476Z,11.02
2023-04-05T20:40:45.777Z,9.65
2023-04-05T20:43:24.647Z,10.43
2023-04-05T20:46:03.597Z,9.95
2023-04-05T20:48:35.345Z,10.07
2023-04-05T20:51:05.152Z,11.77
2023-04-05T20:53:33.236Z,9.38
2023-04-05T20:56:01.312Z,12.35
2023-04-05T20:58:29.592Z,11.27
2023-04-05T21:00:59.257Z,9.63
2023-04-05T21:03:27.195Z,10.50
2023-04-05T21:05:57.262Z,11.35
2023-04-05T21:08:25.674Z,10.85
2023-04-05T21:10:53.884Z,13.93
2023-04-05T21:13:21.716Z,13.55
2023-04-05T21:15:49.808Z,12.25
2023-04-05T21:18:18.126Z,9.27
2023-04-05T21:20:50.727Z,11.20
2023-04-05T21:23:21.297Z,12.88
2023-04-05T21:25:49.541Z,9.35
2023-04-05T21:28:17.700Z,11.63
2023-04-05T21:30:46.014Z,11.55
2023-04-05T21:33:14.568Z,10.85
2023-04-05T21:35:42.241Z,11.50
2023-04-05T21:38:10.019Z,11.57
2023-04-05T21:40:39.021Z,11.85
2023-04-05T21:43:06.849Z,13.13
2023-04-05T21:45:34.599Z,9.45
2023-04-05T21:48:02.256Z,11.38
2023-04-05T21:50:29.978Z,10.35
2023-04-05T21:52:57.703Z,12.70
2023-04-05T21:55:25.297Z,11.93
2023-04-05T21:57:54.222Z,10.82
2023-04-05T22:00:25.582Z,9.90
2023-04-05T22:02:53.424Z,8.95
2023-04-05T22:05:33.829Z,14.82
2023-04-05T22:08:05.665Z,16.73
2023-04-05T22:10:33.663Z,10.60
2023-04-05T22:13:02.661Z,11.55
2023-04-05T22:15:30.307Z,10.88
2023-04-05T22:17:57.948Z,11.10
2023-04-05T22:20:25.792Z,8.10
2023-04-05T22:22:53.346Z,12.35
2023-04-05T22:25:21.125Z,10.43
2023-04-05T22:27:48.756Z,10.07
2023-04-05T22:30:18.137Z,9.52
2023-04-05T22:32:45.777Z,10.68
2023-04-05T22:35:13.405Z,11.20
2023-04-05T22:37:41.149Z,13.65
2023-04-05T22:40:09.739Z,12.02
2023-04-05T22:42:38.294Z,12.93
2023-04-05T22:45:07.378Z,11.32
2023-04-05T22:47:37.211Z,8.02
2023-04-05T22:50:05.469Z,10.57
2023-04-05T22:52:33.259Z,8.90
2023-04-05T22:55:01.159Z,15.43
2023-04-05T22:57:29.142Z,9.63
2023-04-05T22:59:56.666Z,10.32
2023-04-05T23:02:24.623Z,7.90
2023-04-05T23:04:53.795Z,9.85
2023-04-05T23:07:21.332Z,12.35
2023-04-05T23:09:48.942Z,8.45
2023-04-05T23:12:16.550Z,14.07
2023-04-05T23:14:44.507Z,8.85
2023-04-05T23:17:12.094Z,11.55
2023-04-05T23:19:39.835Z,8.45
2023-04-05T23:22:08.780Z,15.75
2023-04-05T23:24:36.330Z,11.70
2023-04-05T23:27:03.996Z,17.88
2023-04-05T23:29:31.662Z,13.07
2023-04-05T23:31:59.213Z,10.70
2023-04-05T23:34:28.256Z,10.77
2023-04-05T23:36:55.879Z,12.00
2023-04-05T23:39:24.933Z,11.80
2023-04-05T23:41:52.593Z,12.32
2023-04-05T23:44:20.529Z,13.63
2023-04-05T23:46:48.103Z,10.45
2023-04-05T23:49:15.950Z,12.50
2023-04-05T23:51:43.901Z,13.35
2023-04-05T23:54:11.680Z,11.10
2023-04-05T23:56:41.084Z,8.98
2023-04-05T23:59:08.909Z,10.73
